createdAt,value
2023-03-11T00:02:22.491Z,3.03
2023-03-11T00:04:49.477Z,3.77
2023-03-11T00:07:16.380Z,6.47
2023-03-11T00:09:43.294Z,3.53
2023-03-11T00:12:10.147Z,6.13
2023-03-11T00:14:37.034Z,3.67
2023-03-11T00:17:03.995Z,3.20
2023-03-11T00:19:31.001Z,2.87
2023-03-11T00:21:58.163Z,4.90
2023-03-11T00:24:25.264Z,5.20
2023-03-11T00:26:52.250Z,3.93
2023-03-11T00:29:19.403Z,4.70
2023-03-11T00:31:46.373Z,3.33
2023-03-11T00:34:13.524Z,3.27
2023-03-11T00:36:40.574Z,2.70
2023-03-11T00:39:07.809Z,2.60
2023-03-11T00:41:35.080Z,3.50
2023-03-11T00:44:05.180Z,4.07
2023-03-11T00:46:32.528Z,3.80
2023-03-11T00:48:59.667Z,3.13
2023-03-11T00:51:26.638Z,3.77
2023-03-11T00:53:53.561Z,4.17
2023-03-11T00:56:20.532Z,3.83
2023-03-11T00:58:47.554Z,3.23
2023-03-11T01:01:19.632Z,2.80
2023-03-11T01:03:46.903Z,3.30
2023-03-11T01:06:13.889Z,3.37
2023-03-11T01:08:40.979Z,3.30
2023-03-11T01:11:08.100Z,2.87
2023-03-11T01:13:35.078Z,3.77
2023-03-11T01:16:02.053Z,2.97
2023-03-11T01:18:29.161Z,3.47
2023-03-11T01:20:55.964Z,3.50
2023-03-11T01:23:23.077Z,3.60
2023-03-11T01:25:50.004Z,2.73
2023-03-11T01:28:17.020Z,2.80
2023-03-11T01:30:44.106Z,3.30
2023-03-11T01:33:17.932Z,2.43
2023-03-11T01:35:45.223Z,3.73
2023-03-11T01:38:12.395Z,3.17
2023-03-11T01:40:43.231Z,2.93
2023-03-11T01:43:44.447Z,2.90
2023-03-11T01:46:19.140Z,2.87
2023-03-11T01:48:50.981Z,3.13
2023-03-11T01:51:21.069Z,3.03
2023-03-11T01:53:48.101Z,2.60
2023-03-11T01:56:15.163Z,2.30
2023-03-11T01:58:44.997Z,2.70
2023-03-11T02:01:12.277Z,2.90
2023-03-11T02:03:40.834Z,2.57
2023-03-11T02:06:13.030Z,2.20
2023-03-11T02:08:40.940Z,2.23
2023-03-11T02:11:09.306Z,2.27
2023-03-11T02:13:36.290Z,3.40
2023-03-11T02:16:03.899Z,2.93
2023-03-11T02:18:30.795Z,2.60
2023-03-11T02:21:09.968Z,3.43
2023-03-11T02:24:06.310Z,2.53
2023-03-11T02:26:55.804Z,2.60
2023-03-11T02:29:23.556Z,2.93
2023-03-11T02:31:50.640Z,3.60
2023-03-11T02:34:27.198Z,2.80
2023-03-11T02:36:54.136Z,3.37
2023-03-11T02:39:38.125Z,2.77
2023-03-11T02:42:07.440Z,3.13
2023-03-11T02:44:34.353Z,3.50
2023-03-11T02:47:01.405Z,2.60
2023-03-11T02:49:28.227Z,2.93
2023-03-11T02:51:55.206Z,2.63
2023-03-11T02:54:22.016Z,2.63
2023-03-11T02:56:48.858Z,3.57
2023-03-11T02:59:15.716Z,2.50
2023-03-11T03:01:45.072Z,2.40
2023-03-11T03:04:12.083Z,2.30
2023-03-11T03:06:39.081Z,3.07
2023-03-11T03:09:06.057Z,2.73
2023-03-11T03:11:32.866Z,2.90
2023-03-11T03:13:59.883Z,2.90
2023-03-11T03:16:26.850Z,3.10
2023-03-11T03:18:53.851Z,3.43
2023-03-11T03:21:20.861Z,2.93
2023-03-11T03:23:48.547Z,2.80
2023-03-11T03:26:15.736Z,2.70
2023-03-11T03:28:42.795Z,3.17
2023-03-11T03:31:10.284Z,3.40
2023-03-11T03:33:37.221Z,2.93
2023-03-11T03:36:09.108Z,3.27
2023-03-11T03:38:36.264Z,2.80
2023-03-11T03:41:03.485Z,3.20
2023-03-11T03:43:30.605Z,3.07
2023-03-11T03:46:05.096Z,3.50
2023-03-11T03:48:32.419Z,3.10
2023-03-11T03:51:07.548Z,3.10
2023-03-11T03:53:37.885Z,2.73
2023-03-11T03:56:09.923Z,2.80
2023-03-11T03:58:40.339Z,3.13
2023-03-11T04:01:08.368Z,2.87
2023-03-11T04:03:36.249Z,3.27
2023-03-11T04:06:07.881Z,2.50
2023-03-11T04:08:40.189Z,3.20
2023-03-11T04:11:07.311Z,2.80
2023-03-11T04:13:34.424Z,2.97
2023-03-11T04:16:04.192Z,3.00
2023-03-11T04:18:31.550Z,2.93
2023-03-11T04:20:58.790Z,2.80
2023-03-11T04:23:26.096Z,2.87
2023-03-11T04:25:53.231Z,3.27
2023-03-11T04:28:20.460Z,3.87
2023-03-11T04:30:48.164Z,3.77
2023-03-11T04:33:15.171Z,3.40
2023-03-11T04:35:42.514Z,3.50
2023-03-11T04:38:09.595Z,3.43
2023-03-11T04:40:38.278Z,3.57
2023-03-11T04:43:05.936Z,4.13
2023-03-11T04:45:40.295Z,4.50
2023-03-11T04:48:12.318Z,3.93
2023-03-11T04:50:42.497Z,4.20
2023-03-11T04:53:10.612Z,4.57
2023-03-11T04:55:46.873Z,5.10
2023-03-11T04:58:25.193Z,4.70
2023-03-11T05:01:00.258Z,4.53
2023-03-11T05:03:41.346Z,4.27
2023-03-11T05:06:19.241Z,4.63
2023-03-11T05:08:50.991Z,4.37
2023-03-11T05:11:25.010Z,4.57
2023-03-11T05:14:02.758Z,3.80
2023-03-11T05:16:39.548Z,3.97
2023-03-11T05:19:28.702Z,4.80
2023-03-11T05:22:02.913Z,4.00
2023-03-11T05:24:32.975Z,4.23
2023-03-11T05:27:03.210Z,4.07
2023-03-11T05:29:32.419Z,4.03
2023-03-11T05:32:03.703Z,3.73
2023-03-11T05:34:37.415Z,4.70
2023-03-11T05:37:20.455Z,4.10
2023-03-11T05:39:54.696Z,4.80
2023-03-11T05:42:27.707Z,4.40
2023-03-11T05:45:00.689Z,4.63
2023-03-11T05:47:39.656Z,5.00
2023-03-11T05:50:24.943Z,4.83
2023-03-11T05:52:58.949Z,4.60
2023-03-11T05:58:20.103Z,5.57
2023-03-11T06:00:56.656Z,4.83
2023-03-11T06:03:27.323Z,5.17
2023-03-11T06:06:00.942Z,4.70
2023-03-11T06:11:22.826Z,5.77
2023-03-11T06:14:02.649Z,6.50
2023-03-11T06:16:58.354Z,6.20
2023-03-11T06:19:35.572Z,8.00
2023-03-11T08:30:36.132Z,15.70
2023-03-11T08:33:03.023Z,12.30
2023-03-11T08:35:29.941Z,12.23
2023-03-11T08:37:56.990Z,6.67
2023-03-11T08:40:23.974Z,5.63
2023-03-11T08:42:51.160Z,5.10
2023-03-11T08:45:19.620Z,4.70
2023-03-11T08:47:46.641Z,3.27
2023-03-11T08:50:15.829Z,2.67
2023-03-11T08:52:42.626Z,2.50
2023-03-11T08:55:11.380Z,2.03
2023-03-11T08:57:38.494Z,2.13
2023-03-11T09:00:07.440Z,3.07
2023-03-11T09:02:34.319Z,2.70
2023-03-11T09:05:01.186Z,2.70
2023-03-11T09:07:27.986Z,2.90
2023-03-11T09:09:54.960Z,2.30
2023-03-11T09:12:21.791Z,1.90
2023-03-11T09:14:48.827Z,2.17
2023-03-11T09:17:15.603Z,3.30
2023-03-11T09:19:42.472Z,2.20
2023-03-11T09:22:09.187Z,2.07
2023-03-11T09:24:36.337Z,1.80
2023-03-11T09:27:03.407Z,1.33
2023-03-11T09:29:30.316Z,1.47
2023-03-11T09:31:57.345Z,1.67
2023-03-11T09:34:24.428Z,1.90
2023-03-11T09:36:51.413Z,1.37
2023-03-11T09:39:18.360Z,1.57
2023-03-11T09:41:58.800Z,2.27
2023-03-11T09:44:41.589Z,1.37
2023-03-11T09:47:30.384Z,1.93
2023-03-11T09:50:16.882Z,2.43
2023-03-11T09:52:46.840Z,1.60
2023-03-11T09:55:30.153Z,1.97
2023-03-11T09:58:05.188Z,1.60
2023-03-11T10:00:34.307Z,1.00
2023-03-11T10:03:05.116Z,1.77
2023-03-11T10:05:36.188Z,6.47
2023-03-11T10:08:10.284Z,1.50
2023-03-11T10:10:41.637Z,1.53
2023-03-11T10:13:18.944Z,1.53
2023-03-11T10:15:54.485Z,1.80
2023-03-11T10:18:27.384Z,2.73
2023-03-11T10:21:00.660Z,1.50
2023-03-11T10:23:50.361Z,1.40
2023-03-11T10:26:34.058Z,1.57
2023-03-11T10:29:20.575Z,1.23
2023-03-11T10:32:17.388Z,1.87
2023-03-11T10:35:00.964Z,1.50
2023-03-11T10:37:48.227Z,1.00
2023-03-11T10:40:35.408Z,1.43
2023-03-11T10:43:26.436Z,1.33
2023-03-11T10:45:56.575Z,1.40
2023-03-11T10:48:28.938Z,1.40
2023-03-11T10:51:05.219Z,1.53
2023-03-11T10:53:36.421Z,1.30
2023-03-11T10:56:04.194Z,1.40
2023-03-11T10:58:37.424Z,2.30
2023-03-11T11:01:12.297Z,2.20
2023-03-11T11:03:44.388Z,1.30
2023-03-11T11:06:32.937Z,1.17
2023-03-11T11:09:18.759Z,1.23
2023-03-11T11:12:04.737Z,1.30
2023-03-11T11:14:54.680Z,1.40
2023-03-11T11:17:30.133Z,1.67
2023-03-11T11:19:58.496Z,1.40
2023-03-11T11:22:25.964Z,1.10
2023-03-11T11:24:54.743Z,1.33
2023-03-11T11:27:26.256Z,1.30
2023-03-11T11:30:09.493Z,1.20
2023-03-11T11:32:37.321Z,1.50
2023-03-11T11:35:07.625Z,1.00
2023-03-11T11:37:36.571Z,1.30
2023-03-11T11:40:11.392Z,1.20
2023-03-11T11:42:40.035Z,1.53
2023-03-11T11:45:35.318Z,1.47
2023-03-11T11:48:14.900Z,1.50
2023-03-11T11:50:46.348Z,1.80
2023-03-11T11:53:26.681Z,1.20
2023-03-11T11:55:54.672Z,1.40
2023-03-11T11:58:22.228Z,1.23
2023-03-11T12:00:55.564Z,1.00
2023-03-11T12:03:51.446Z,1.17
2023-03-11T12:06:57.056Z,1.70
2023-03-11T12:09:31.431Z,1.10
2023-03-11T12:12:11.063Z,1.27
2023-03-11T12:15:12.731Z,1.17
2023-03-11T12:17:42.092Z,1.10
2023-03-11T12:20:14.389Z,1.53
2023-03-11T12:22:52.553Z,2.30
2023-03-11T12:26:00.574Z,1.20
2023-03-11T12:28:42.409Z,1.60
2023-03-11T12:31:11.375Z,1.70
2023-03-11T12:33:54.431Z,1.27
2023-03-11T12:36:23.862Z,1.30
2023-03-11T12:38:51.107Z,1.47
2023-03-11T12:41:31.959Z,1.60
2023-03-11T12:44:01.253Z,1.10
2023-03-11T12:46:59.853Z,1.30
2023-03-11T12:49:37.015Z,1.30
2023-03-11T12:52:13.546Z,1.13
2023-03-11T12:55:10.556Z,1.60
2023-03-11T12:57:40.978Z,0.90
2023-03-11T13:00:27.066Z,1.10
2023-03-11T13:32:36.531Z,1.77
2023-03-11T13:35:47.304Z,2.03
2023-03-11T13:38:38.346Z,1.50
2023-03-11T13:41:25.631Z,1.20
2023-03-11T13:43:52.807Z,1.50
2023-03-11T13:46:38.796Z,2.80
2023-03-11T13:49:26.189Z,1.30
2023-03-11T13:51:54.392Z,1.80
2023-03-11T13:54:34.167Z,1.77
2023-03-11T13:57:02.803Z,1.60
2023-03-11T13:59:31.618Z,1.10
2023-03-11T14:02:19.393Z,1.57
2023-03-11T14:04:53.869Z,1.10
2023-03-11T14:07:31.921Z,1.30
2023-03-11T14:10:21.612Z,1.40
2023-03-11T14:12:48.978Z,1.20
2023-03-11T14:15:27.313Z,0.80
2023-03-11T14:17:55.117Z,1.80
2023-03-11T14:20:25.609Z,2.00
2023-03-11T14:22:57.445Z,1.27
2023-03-11T14:25:29.293Z,1.70
2023-03-11T14:28:01.459Z,1.70
2023-03-11T14:30:30.819Z,1.30
2023-03-11T14:32:59.211Z,1.63
2023-03-11T14:35:26.493Z,1.30
2023-03-11T14:37:53.952Z,1.50
2023-03-11T14:40:31.402Z,1.93
2023-03-11T14:43:03.271Z,1.30
2023-03-11T14:45:32.879Z,1.90
2023-03-11T14:48:14.705Z,1.67
2023-03-11T14:50:42.850Z,2.23
2023-03-11T14:53:14.154Z,1.33
2023-03-11T14:56:07.189Z,2.83
2023-03-11T14:58:53.168Z,1.60
2023-03-11T15:01:26.808Z,1.47
2023-03-11T15:04:02.066Z,1.27
2023-03-11T15:06:30.188Z,2.43
2023-03-11T15:09:12.104Z,1.13
2023-03-11T15:11:56.160Z,1.97
2023-03-11T15:14:33.725Z,1.47
2023-03-11T15:17:44.332Z,1.87
2023-03-11T15:20:32.443Z,2.73
2023-03-11T15:23:04.413Z,1.57
2023-03-11T15:25:37.052Z,1.87
2023-03-11T15:28:25.521Z,1.60
2023-03-11T15:31:16.944Z,1.50
